createdAt,value
2023-03-27T00:01:25.304Z,5.32
2023-03-27T00:03:53.425Z,5.28
2023-03-27T00:06:21.884Z,5.26
2023-03-27T00:08:51.022Z,5.24
2023-03-27T00:11:19.139Z,5.23
2023-03-27T00:13:50.075Z,5.21
2023-03-27T00:16:22.595Z,5.20
2023-03-27T00:18:49.316Z,5.23
2023-03-27T00:21:15.933Z,5.36
2023-03-27T00:23:42.660Z,5.40
2023-03-27T00:26:09.924Z,5.38
2023-03-27T00:28:37.186Z,5.38
2023-03-27T00:31:04.102Z,5.45
2023-03-27T00:33:30.785Z,5.42
2023-03-27T00:35:57.426Z,5.34
2023-03-27T00:38:24.475Z,5.28
2023-03-27T00:40:54.391Z,5.26
2023-03-27T00:43:21.710Z,5.29
2023-03-27T00:45:52.638Z,5.16
2023-03-27T00:48:20.704Z,4.79
2023-03-27T00:50:49.989Z,4.61
2023-03-27T00:53:20.640Z,4.41
2023-03-27T00:55:49.191Z,4.31
2023-03-27T00:58:32.077Z,4.23
2023-03-27T01:00:59.141Z,4.13
2023-03-27T01:03:30.167Z,4.06
2023-03-27T01:06:00.334Z,3.97
2023-03-27T01:08:29.855Z,3.89
2023-03-27T01:11:20.736Z,3.56
2023-03-27T01:13:50.322Z,3.40
2023-03-27T01:16:27.446Z,3.16
2023-03-27T01:19:12.417Z,3.13
2023-03-27T01:21:54.278Z,2.88
2023-03-27T01:24:48.403Z,2.77
2023-03-27T01:27:52.672Z,2.70
2023-03-27T01:30:29.602Z,2.47
2023-03-27T01:33:08.482Z,2.47
2023-03-27T01:35:50.583Z,2.46
2023-03-27T01:38:19.884Z,2.40
2023-03-27T01:41:01.416Z,2.21
2023-03-27T01:44:00.762Z,2.11
2023-03-27T01:46:35.687Z,1.97
2023-03-27T01:49:15.630Z,1.86
2023-03-27T01:51:49.093Z,1.90
2023-03-27T01:54:29.814Z,1.97
2023-03-27T01:57:16.084Z,1.80
2023-03-27T01:59:46.417Z,1.86
2023-03-27T02:02:31.048Z,1.81
2023-03-27T02:05:12.503Z,1.88
2023-03-27T02:07:48.769Z,1.82
2023-03-27T02:10:21.746Z,1.74
2023-03-27T02:12:59.978Z,1.76
2023-03-27T02:15:32.748Z,1.81
2023-03-27T02:18:05.117Z,1.79
2023-03-27T02:20:37.549Z,1.74
2023-03-27T02:23:06.411Z,1.67
2023-03-27T02:25:45.273Z,1.66
2023-03-27T02:28:53.648Z,1.67
2023-03-27T02:31:40.559Z,1.55
2023-03-27T02:34:11.925Z,1.59
2023-03-27T02:36:44.633Z,1.54
2023-03-27T02:39:16.000Z,1.57
2023-03-27T02:41:42.461Z,1.53
2023-03-27T02:44:46.293Z,1.42
2023-03-27T02:47:30.790Z,1.39
2023-03-27T02:50:09.724Z,1.36
2023-03-27T02:52:45.486Z,1.39
2023-03-27T02:55:19.523Z,1.33
2023-03-27T02:57:54.846Z,1.34
2023-03-27T03:00:37.478Z,1.39
2023-03-27T03:03:27.636Z,1.43
2023-03-27T03:06:06.955Z,1.46
2023-03-27T03:08:38.351Z,1.39
2023-03-27T03:11:10.717Z,1.45
2023-03-27T03:13:38.144Z,1.49
2023-03-27T03:16:05.425Z,1.65
2023-03-27T03:18:33.319Z,1.57
2023-03-27T03:21:00.437Z,1.52
2023-03-27T03:23:27.113Z,1.56
2023-03-27T03:25:56.860Z,1.54
2023-03-27T03:28:26.999Z,1.62
2023-03-27T03:30:54.159Z,1.56
2023-03-27T03:33:21.675Z,1.56
2023-03-27T03:35:51.537Z,1.59
2023-03-27T03:38:29.600Z,1.63
2023-03-27T03:41:07.020Z,1.78
2023-03-27T03:43:34.501Z,1.92
2023-03-27T03:46:01.633Z,1.97
2023-03-27T03:48:28.312Z,2.01
2023-03-27T03:50:55.168Z,2.03
2023-03-27T03:53:22.526Z,2.00
2023-03-27T03:55:52.674Z,2.08
2023-03-27T03:58:19.766Z,2.15
2023-03-27T04:00:47.136Z,2.20
2023-03-27T04:03:32.323Z,2.10
2023-03-27T04:06:05.672Z,2.12
2023-03-27T04:08:33.424Z,2.12
2023-03-27T04:11:02.707Z,2.16
2023-03-27T04:13:58.422Z,2.11
2023-03-27T04:16:34.324Z,2.12
2023-03-27T04:19:08.107Z,2.14
2023-03-27T04:21:37.850Z,2.13
2023-03-27T04:24:05.345Z,2.14
2023-03-27T04:26:43.352Z,2.12
2023-03-27T04:29:25.826Z,2.11
2023-03-27T04:32:19.356Z,2.21
2023-03-27T04:35:12.701Z,2.21
2023-03-27T04:37:47.977Z,2.20
2023-03-27T04:40:49.141Z,2.29
2023-03-27T04:43:17.357Z,2.26
2023-03-27T04:45:47.448Z,2.26
2023-03-27T04:48:15.236Z,2.35
2023-03-27T04:50:49.246Z,2.32
2023-03-27T04:53:31.059Z,2.24
2023-03-27T04:55:58.106Z,2.25
2023-03-27T04:58:28.424Z,2.19
2023-03-27T05:00:57.558Z,2.22
2023-03-27T05:03:42.967Z,2.28
2023-03-27T05:06:16.100Z,2.28
2023-03-27T05:08:42.859Z,2.24
2023-03-27T05:11:18.999Z,2.24
2023-03-27T05:13:45.721Z,2.22
2023-03-27T05:16:17.281Z,2.19
2023-03-27T05:18:46.431Z,2.19
2023-03-27T05:21:13.510Z,2.15
2023-03-27T05:23:40.201Z,2.14
2023-03-27T05:26:07.822Z,2.03
2023-03-27T05:28:52.492Z,2.11
2023-03-27T05:31:19.324Z,2.10
2023-03-27T05:34:05.690Z,2.09
2023-03-27T05:36:35.393Z,2.07
2023-03-27T05:39:02.156Z,2.12
2023-03-27T05:41:35.414Z,2.16
2023-03-27T05:44:04.864Z,2.16
2023-03-27T05:46:36.304Z,2.12
2023-03-27T05:49:15.438Z,2.11
2023-03-27T05:51:46.804Z,2.05
2023-03-27T05:54:19.372Z,2.06
2023-03-27T05:56:54.486Z,2.05
2023-03-27T05:59:21.553Z,1.97
2023-03-27T06:01:51.901Z,1.92
2023-03-27T06:04:24.430Z,1.87
2023-03-27T06:07:04.848Z,1.86
2023-03-27T06:09:32.856Z,1.84
2023-03-27T06:12:29.372Z,1.87
2023-03-27T06:15:08.506Z,1.87
2023-03-27T06:17:41.162Z,1.87
2023-03-27T06:20:15.005Z,1.89
2023-03-27T06:22:55.528Z,1.82
2023-03-27T06:25:32.191Z,1.82
2023-03-27T06:27:59.204Z,1.83
2023-03-27T06:30:26.860Z,1.84
2023-03-27T06:33:22.865Z,1.91
2023-03-27T06:35:53.292Z,2.00
2023-03-27T06:38:30.944Z,2.01
2023-03-27T06:40:59.527Z,1.98
2023-03-27T06:43:39.177Z,1.89
2023-03-27T06:46:13.663Z,2.00
2023-03-27T06:49:00.270Z,2.02
2023-03-27T06:51:27.044Z,2.01
2023-03-27T06:53:54.015Z,1.96
2023-03-27T06:56:21.838Z,1.92
2023-03-27T06:59:07.260Z,1.86
2023-03-27T07:01:34.118Z,1.87
2023-03-27T07:04:18.859Z,1.83
2023-03-27T07:06:53.331Z,1.87
2023-03-27T07:09:20.335Z,2.00
2023-03-27T07:11:57.572Z,2.20
2023-03-27T07:14:24.292Z,2.31
2023-03-27T07:16:51.332Z,2.16
2023-03-27T07:19:19.004Z,2.13
2023-03-27T07:21:51.049Z,2.09
2023-03-27T07:24:17.665Z,2.10
2023-03-27T07:26:44.254Z,2.11
2023-03-27T07:29:20.843Z,2.06
2023-03-27T07:34:29.692Z,1.84
2023-03-27T07:37:11.328Z,1.76
2023-03-27T07:39:48.267Z,1.86
2023-03-27T07:42:15.486Z,1.90
2023-03-27T07:44:52.612Z,2.01
2023-03-27T07:47:20.850Z,2.12
2023-03-27T07:49:47.514Z,2.16
2023-03-27T07:52:19.941Z,2.16
2023-03-27T07:54:56.867Z,2.19
2023-03-27T07:57:29.549Z,2.14
2023-03-27T08:00:12.892Z,2.19
2023-03-27T08:02:51.923Z,2.37
2023-03-27T08:05:19.692Z,2.55
2023-03-27T08:07:56.170Z,2.60
2023-03-27T08:10:40.292Z,2.73
2023-03-27T08:13:08.349Z,2.71
2023-03-27T08:15:35.029Z,2.63
2023-03-27T08:18:03.015Z,2.58
2023-03-27T08:20:30.581Z,2.50
2023-03-27T08:22:58.447Z,2.54
2023-03-27T08:25:52.137Z,2.41
2023-03-27T08:28:21.850Z,2.30
2023-03-27T08:30:48.542Z,2.31
2023-03-27T08:33:16.980Z,2.49
2023-03-27T08:38:26.002Z,2.69
2023-03-27T08:41:38.645Z,2.54
2023-03-27T08:44:26.410Z,2.89
2023-03-27T08:47:05.060Z,3.20
2023-03-27T08:49:43.040Z,3.36
2023-03-27T08:52:33.001Z,3.59
2023-03-27T08:55:18.572Z,3.82
2023-03-27T08:58:19.432Z,3.95
2023-03-27T09:00:57.506Z,4.06
2023-03-27T09:03:32.052Z,4.13
2023-03-27T09:06:34.056Z,4.13
2023-03-27T09:09:38.812Z,4.27
2023-03-27T09:12:34.010Z,4.25
2023-03-27T09:15:15.867Z,4.13
2023-03-27T09:17:56.909Z,4.34
2023-03-27T09:20:29.956Z,4.53
2023-03-27T09:23:05.465Z,4.51
2023-03-27T09:25:59.294Z,4.66
2023-03-27T09:28:53.429Z,4.93
2023-03-27T09:31:46.890Z,5.04
2023-03-27T09:34:28.888Z,4.72
2023-03-27T09:36:59.180Z,4.47
2023-03-27T09:39:32.488Z,4.13
2023-03-27T09:42:28.886Z,4.04
2023-03-27T09:44:58.797Z,4.66
2023-03-27T09:47:40.757Z,5.50
2023-03-27T09:50:26.268Z,5.90
2023-03-27T09:53:16.013Z,6.17
2023-03-27T09:55:53.121Z,7.17
2023-03-27T09:58:25.299Z,7.48
2023-03-27T10:01:08.484Z,8.32
2023-03-27T10:03:48.537Z,8.44
2023-03-27T10:06:25.555Z,10.76
2023-03-27T10:09:19.334Z,11.16
2023-03-27T10:11:48.242Z,9.77
2023-03-27T10:14:26.120Z,9.03
2023-03-27T10:16:54.472Z,8.22
2023-03-27T10:19:27.788Z,7.11
2023-03-27T10:21:56.866Z,6.25
2023-03-27T10:24:36.036Z,5.77
2023-03-27T10:27:31.454Z,6.47
2023-03-27T10:30:28.532Z,6.37
2023-03-27T10:33:07.288Z,7.18
2023-03-27T10:35:48.931Z,9.05
2023-03-27T10:38:35.684Z,8.79
2023-03-27T10:41:36.829Z,7.47
2023-03-27T10:44:21.357Z,6.79
2023-03-27T10:46:54.981Z,6.95
2023-03-27T10:49:34.842Z,9.67
2023-03-27T10:52:31.091Z,8.98
2023-03-27T10:55:12.486Z,8.22
2023-03-27T10:57:43.090Z,7.25
2023-03-27T11:00:20.883Z,6.70
2023-03-27T11:03:36.428Z,7.79
2023-03-27T11:06:13.873Z,9.11
2023-03-27T11:08:48.393Z,8.79
2023-03-27T11:11:25.618Z,7.90
2023-03-27T11:14:02.140Z,6.98
2023-03-27T11:16:42.288Z,6.22
2023-03-27T11:19:45.864Z,6.23
2023-03-27T11:22:33.681Z,8.39
2023-03-27T11:25:14.009Z,7.89
2023-03-27T11:27:48.141Z,7.11
2023-03-27T11:30:32.950Z,6.71
2023-03-27T11:33:25.553Z,6.52
2023-03-27T11:36:06.567Z,6.63
2023-03-27T11:38:59.349Z,6.12
2023-03-27T11:41:26.975Z,5.75
2023-03-27T11:43:53.668Z,5.57
2023-03-27T11:47:19.626Z,5.62
2023-03-27T11:50:05.712Z,7.48
2023-03-27T11:52:57.091Z,9.32
2023-03-27T11:56:09.665Z,9.14
2023-03-27T11:59:01.520Z,8.95
2023-03-27T12:01:48.502Z,9.80
2023-03-27T12:04:37.774Z,11.08
2023-03-27T12:07:47.366Z,11.59
2023-03-27T12:10:33.771Z,9.91
2023-03-27T12:13:38.658Z,8.74
2023-03-27T12:16:35.894Z,8.28
2023-03-27T12:19:28.583Z,9.97
2023-03-27T12:22:24.844Z,12.36
2023-03-27T12:24:59.961Z,14.11
2023-03-27T12:28:06.433Z,15.33
2023-03-27T12:31:01.625Z,14.77
2023-03-27T12:33:54.084Z,12.79
2023-03-27T12:36:24.277Z,10.41
2023-03-27T12:38:54.193Z,10.42
2023-03-27T12:41:23.365Z,12.32
2023-03-27T12:44:13.307Z,14.12
2023-03-27T12:47:22.925Z,12.69
2023-03-27T12:49:59.746Z,11.88
2023-03-27T12:52:32.913Z,12.09
2023-03-27T12:55:15.944Z,12.08
2023-03-27T12:58:05.390Z,10.82
2023-03-27T13:00:41.217Z,12.10
2023-03-27T13:03:46.972Z,12.40
2023-03-27T13:06:29.550Z,13.66
2023-03-27T13:09:23.133Z,14.20
2023-03-27T13:12:13.753Z,13.53
2023-03-27T13:15:03.743Z,11.69
2023-03-27T13:17:56.176Z,10.38
2023-03-27T13:20:45.370Z,10.24
2023-03-27T13:23:32.923Z,11.41
2023-03-27T13:26:10.442Z,12.67
2023-03-27T13:28:48.568Z,13.47
2023-03-27T13:31:49.463Z,13.91
2023-03-27T13:34:37.508Z,14.86
2023-03-27T13:37:11.243Z,15.31
2023-03-27T13:40:01.510Z,15.52
2023-03-27T13:42:39.778Z,14.09
2023-03-27T13:45:20.536Z,12.90
2023-03-27T13:48:40.887Z,10.74
2023-03-27T13:51:32.687Z,9.41
2023-03-27T13:54:06.594Z,8.63
2023-03-27T13:56:56.659Z,7.71
2023-03-27T13:59:43.741Z,7.38
2023-03-27T14:02:45.611Z,6.59
2023-03-27T14:05:20.329Z,6.19
2023-03-27T14:08:06.114Z,5.74
2023-03-27T14:11:11.053Z,5.37
2023-03-27T14:14:07.523Z,5.35
2023-03-27T14:17:12.680Z,5.88
2023-03-27T14:19:45.796Z,6.70
2023-03-27T14:23:00.598Z,6.69
2023-03-27T14:25:40.988Z,6.08
2023-03-27T14:28:35.228Z,5.85
2023-03-27T14:31:08.403Z,5.76
2023-03-27T14:34:01.032Z,5.52
2023-03-27T14:36:33.947Z,5.44
2023-03-27T14:39:22.721Z,6.23
2023-03-27T14:42:02.214Z,6.85
2023-03-27T14:44:32.477Z,7.29
2023-03-27T14:47:09.985Z,7.50
2023-03-27T14:49:45.816Z,7.35
2023-03-27T14:52:33.346Z,7.24
2023-03-27T14:55:37.030Z,7.03
2023-03-27T14:58:25.012Z,6.58
2023-03-27T15:01:01.707Z,6.42
2023-03-27T15:03:35.293Z,6.32
2023-03-27T15:06:04.588Z,6.22
2023-03-27T15:08:50.192Z,5.81
2023-03-27T15:11:55.581Z,5.61
2023-03-27T15:14:28.962Z,5.72
2023-03-27T15:17:19.191Z,5.73
2023-03-27T15:20:00.488Z,5.81
2023-03-27T15:22:35.217Z,5.88
2023-03-27T15:25:17.680Z,5.81
2023-03-27T15:27:53.993Z,5.78
2023-03-27T15:30:25.637Z,5.75
2023-03-27T15:32:54.905Z,5.83
2023-03-27T15:35:33.423Z,5.71
2023-03-27T15:38:02.306Z,5.97
2023-03-27T15:40:58.609Z,6.06
2023-03-27T15:43:28.143Z,6.38
2023-03-27T15:46:17.683Z,6.58
2023-03-27T15:48:48.311Z,6.57
2023-03-27T15:51:21.050Z,6.48
2023-03-27T15:53:58.744Z,6.42
2023-03-27T15:56:42.370Z,6.04
2023-03-27T15:59:15.573Z,6.13
2023-03-27T16:01:53.173Z,6.08
2023-03-27T16:04:39.124Z,5.42
2023-03-27T16:07:42.899Z,5.05
2023-03-27T16:10:10.763Z,4.83
2023-03-27T16:12:51.722Z,4.51
2023-03-27T16:15:36.563Z,4.36
2023-03-27T16:18:32.573Z,4.32
2023-03-27T16:21:28.289Z,4.11
2023-03-27T16:23:56.976Z,4.16
2023-03-27T16:26:30.791Z,4.08
2023-03-27T16:29:05.377Z,3.85
2023-03-27T16:31:33.490Z,3.74
2023-03-27T16:34:01.954Z,3.65
2023-03-27T16:36:33.446Z,3.60
2023-03-27T16:39:01.738Z,3.59
2023-03-27T16:41:29.932Z,3.58
2023-03-27T16:43:58.006Z,3.50
2023-03-27T16:46:29.437Z,3.60
2023-03-27T16:48:58.048Z,3.60
2023-03-27T16:51:29.526Z,3.57
2023-03-27T16:53:57.917Z,3.59
2023-03-27T16:56:26.304Z,3.52
2023-03-27T16:58:54.745Z,3.39
2023-03-27T17:01:24.628Z,3.32
2023-03-27T17:03:52.839Z,3.32
2023-03-27T17:06:23.257Z,3.28
2023-03-27T17:08:56.201Z,3.16
2023-03-27T17:11:25.009Z,3.16
2023-03-27T17:13:53.368Z,3.14
2023-03-27T17:16:21.458Z,3.18
2023-03-27T17:18:50.557Z,3.29
2023-03-27T17:21:19.262Z,3.27
2023-03-27T17:23:49.268Z,3.07
2023-03-27T17:26:32.675Z,2.89
2023-03-27T17:29:01.923Z,2.52
2023-03-27T17:31:31.050Z,2.11
2023-03-27T17:34:00.643Z,1.74
2023-03-27T17:36:40.205Z,1.57
2023-03-27T17:39:12.002Z,1.37
2023-03-27T17:41:40.204Z,1.29
2023-03-27T17:44:11.272Z,1.13
2023-03-27T17:46:40.781Z,1.03
2023-03-27T17:49:08.570Z,1.11
2023-03-27T17:51:37.819Z,1.30
2023-03-27T17:54:05.943Z,1.36
2023-03-27T17:56:34.764Z,1.35
2023-03-27T17:59:04.028Z,1.30
2023-03-27T18:01:31.524Z,1.27
2023-03-27T18:04:00.375Z,1.18
2023-03-27T18:06:27.236Z,1.10
2023-03-27T18:08:54.315Z,0.87
2023-03-27T18:11:21.616Z,0.66
2023-03-27T18:13:52.815Z,0.62
2023-03-27T18:16:20.233Z,0.62
2023-03-27T18:18:47.458Z,0.58
2023-03-27T18:21:16.215Z,0.42
2023-03-27T18:23:45.924Z,0.32
2023-03-27T18:26:13.888Z,0.27
2023-03-27T18:28:40.607Z,0.20
2023-03-27T18:31:09.509Z,0.30
2023-03-27T18:33:36.526Z,0.28
2023-03-27T18:36:06.847Z,0.31
2023-03-27T18:38:33.519Z,0.39
2023-03-27T18:41:00.513Z,0.46
2023-03-27T18:43:27.389Z,0.40
2023-03-27T18:46:08.192Z,0.43
2023-03-27T18:48:35.294Z,0.48
2023-03-27T18:51:04.400Z,0.53
2023-03-27T18:53:31.487Z,0.43
2023-03-27T18:55:58.925Z,0.34
2023-03-27T18:58:27.682Z,0.34
2023-03-27T19:00:58.287Z,0.25
2023-03-27T19:03:30.267Z,0.27
2023-03-27T19:06:01.189Z,0.31
2023-03-27T19:08:29.156Z,0.25
2023-03-27T19:10:57.340Z,0.25
2023-03-27T19:13:42.868Z,0.19
2023-03-27T19:16:32.923Z,0.26
2023-03-27T19:19:19.073Z,0.20
2023-03-27T19:21:52.780Z,0.13
2023-03-27T19:24:26.064Z,0.06
2023-03-27T19:26:52.946Z,0.01
2023-03-27T19:29:20.219Z,-0.09
2023-03-27T19:31:46.909Z,0.00
2023-03-27T19:34:13.614Z,-0.05
2023-03-27T19:36:40.498Z,-0.02
2023-03-27T19:39:07.161Z,0.01
2023-03-27T19:41:33.888Z,0.04
2023-03-27T19:44:00.817Z,0.12
2023-03-27T19:46:29.045Z,0.14
2023-03-27T19:48:56.482Z,0.17
2023-03-27T19:51:32.238Z,0.20
2023-03-27T19:53:58.827Z,0.24
2023-03-27T19:56:26.542Z,0.24
2023-03-27T19:58:53.484Z,0.24
2023-03-27T20:01:20.123Z,0.21
2023-03-27T20:03:47.068Z,0.18
2023-03-27T20:06:19.598Z,0.16
2023-03-27T20:08:46.663Z,0.15
2023-03-27T20:11:15.337Z,0.13
2023-03-27T20:13:55.484Z,0.12
2023-03-27T20:16:26.569Z,0.16
2023-03-27T20:19:04.339Z,0.17
2023-03-27T20:21:39.772Z,0.20
2023-03-27T20:24:12.171Z,0.22
2023-03-27T20:26:41.999Z,0.17
2023-03-27T20:29:18.489Z,0.17
2023-03-27T20:31:46.142Z,0.13
2023-03-27T20:34:13.026Z,0.13
2023-03-27T20:36:40.010Z,0.10
2023-03-27T20:39:19.016Z,0.07
2023-03-27T20:41:46.999Z,0.09
2023-03-27T20:44:16.558Z,0.04
2023-03-27T20:46:51.888Z,0.03
2023-03-27T20:51:55.817Z,0.05
2023-03-27T20:54:22.613Z,0.03
2023-03-27T20:56:49.261Z,0.04
2023-03-27T20:59:17.515Z,0.08
2023-03-27T21:01:44.216Z,0.13
2023-03-27T21:04:13.319Z,0.06
2023-03-27T21:06:41.389Z,0.11
2023-03-27T21:09:09.314Z,0.19
2023-03-27T21:11:36.410Z,0.31
2023-03-27T21:14:03.904Z,0.36
2023-03-27T21:16:30.623Z,0.38
2023-03-27T21:18:57.262Z,0.45
2023-03-27T21:21:23.939Z,0.45
2023-03-27T21:23:51.513Z,0.45
2023-03-27T21:26:18.117Z,0.40
2023-03-27T21:28:44.872Z,0.40
2023-03-27T21:31:11.892Z,0.36
2023-03-27T21:33:38.591Z,0.29
2023-03-27T21:36:05.749Z,0.27
2023-03-27T21:38:32.471Z,0.25
2023-03-27T21:41:01.935Z,0.23
2023-03-27T21:43:29.217Z,0.22
2023-03-27T21:45:55.925Z,0.22
2023-03-27T21:48:22.519Z,0.15
2023-03-27T21:50:49.206Z,0.15
2023-03-27T21:53:17.031Z,0.09
2023-03-27T21:55:46.333Z,0.11
2023-03-27T21:58:12.871Z,0.17
2023-03-27T22:00:39.501Z,0.22
2023-03-27T22:03:06.847Z,0.27
2023-03-27T22:05:36.610Z,0.27
2023-03-27T22:08:03.904Z,0.25
2023-03-27T22:10:30.809Z,0.27
2023-03-27T22:12:57.396Z,0.31
2023-03-27T22:15:24.151Z,0.37
2023-03-27T22:17:50.839Z,0.38
2023-03-27T22:20:17.534Z,0.34
2023-03-27T22:22:44.085Z,0.32
2023-03-27T22:25:10.774Z,0.31
2023-03-27T22:27:37.403Z,0.32
2023-03-27T22:30:04.492Z,0.33
2023-03-27T22:32:31.368Z,0.29
2023-03-27T22:34:58.122Z,0.32
2023-03-27T22:37:25.140Z,0.32
2023-03-27T22:39:53.000Z,0.34
2023-03-27T22:42:19.637Z,0.31
2023-03-27T22:44:46.258Z,0.29
2023-03-27T22:47:12.779Z,0.29
2023-03-27T22:49:39.400Z,0.29
2023-03-27T22:52:06.164Z,0.27
2023-03-27T22:54:32.814Z,0.25
2023-03-27T22:56:59.420Z,0.25
2023-03-27T22:59:26.116Z,0.27
2023-03-27T23:01:52.861Z,0.29
2023-03-27T23:04:19.441Z,0.26
2023-03-27T23:06:46.012Z,0.25
2023-03-27T23:09:12.560Z,0.27
2023-03-27T23:11:39.191Z,0.33
2023-03-27T23:14:06.072Z,0.29
2023-03-27T23:16:33.319Z,0.30
2023-03-27T23:18:59.946Z,0.35
2023-03-27T23:21:26.566Z,0.44
2023-03-27T23:23:53.181Z,0.53
2023-03-27T23:26:19.813Z,0.56
2023-03-27T23:28:46.428Z,0.58
2023-03-27T23:31:15.676Z,0.61
2023-03-27T23:33:47.589Z,0.60
2023-03-27T23:36:23.282Z,0.63
2023-03-27T23:38:51.518Z,0.67
2023-03-27T23:41:19.243Z,0.66
2023-03-27T23:43:46.195Z,0.68
2023-03-27T23:46:13.314Z,0.66
2023-03-27T23:48:42.141Z,0.66
2023-03-27T23:51:10.192Z,0.66
2023-03-27T23:53:37.772Z,0.63
2023-03-27T23:56:04.873Z,0.64
2023-03-27T23:58:35.038Z,0.59
